Time;durP1;ratioP1;P1;durP2;ratioP2;P2;SDS_P1;SDS_P2;PMS_P1;PMS_P2;Temp;Humidity;BMP_temperature;BMP_pressure;BME280_temperature;BME280_humidity;BME280_pressure;Samples;Min_cycle;Max_cycle;Signal;HPM_P1;HPM_P2
2021/01/05 00:00:58;;;;;;;5.60;1.85;;;;;;;2.56;87.74;102063.44;5050576;28;20068;-58
2021/01/05 00:03:25;;;;;;;8.35;2.17;;;;;;;2.56;87.90;102068.97;5050693;28;20076;-58
2021/01/05 00:05:52;;;;;;;9.75;2.10;;;;;;;2.55;87.97;102065.34;5049952;28;20052;-57
2021/01/05 00:08:19;;;;;;;7.50;1.90;;;;;;;2.55;88.11;102070.03;5050725;28;20040;-53
2021/01/05 00:10:46;;;;;;;5.53;1.70;;;;;;;2.52;88.36;102075.97;5050064;28;20072;-59
2021/01/05 00:13:13;;;;;;;9.30;2.00;;;;;;;2.55;88.11;102065.34;5050156;28;20123;-57
2021/01/05 00:15:40;;;;;;;9.35;2.17;;;;;;;2.56;88.16;102071.72;5050073;28;20615;-58
2021/01/05 00:18:06;;;;;;;6.95;2.03;;;;;;;2.58;88.35;102064.94;5050639;28;20041;-59
2021/01/05 00:20:33;;;;;;;7.35;2.05;;;;;;;2.52;88.16;102073.19;5049537;28;20112;-55
2021/01/05 00:23:12;;;;;;;7.05;2.20;;;;;;;2.51;88.79;102068.75;5050780;28;20059;-57
2021/01/05 00:25:40;;;;;;;8.43;1.88;;;;;;;2.54;88.62;102065.56;5049986;28;20123;-56
2021/01/05 00:28:08;;;;;;;6.18;1.90;;;;;;;2.56;88.35;102066.22;5049851;28;20049;-58
2021/01/05 00:30:35;;;;;;;7.70;2.47;;;;;;;2.57;88.41;102062.38;5052103;28;20094;-57
2021/01/05 00:33:02;;;;;;;9.43;2.28;;;;;;;2.53;88.50;102070.22;5054631;28;20111;-56
2021/01/05 00:35:32;;;;;;;9.65;2.35;;;;;;;2.54;88.44;102060.06;5052232;28;20079;-58
2021/01/05 00:37:58;;;;;;;7.00;2.15;;;;;;;2.54;88.72;102065.56;5054439;28;20047;-58
2021/01/05 00:40:26;;;;;;;11.73;2.22;;;;;;;2.54;88.53;102066.41;5053689;28;20037;-59
2021/01/05 00:42:55;;;;;;;6.97;2.30;;;;;;;2.57;88.78;102065.13;5054603;28;20124;-56
2021/01/05 00:45:24;;;;;;;5.00;2.05;;;;;;;2.55;88.69;102070.88;5052296;28;20052;-59
2021/01/05 00:47:50;;;;;;;7.50;1.73;;;;;;;2.53;88.93;102059.22;5053838;28;20045;-59
2021/01/05 00:50:18;;;;;;;6.38;1.90;;;;;;;2.53;88.80;102061.13;5052699;28;20117;-55
2021/01/05 00:52:45;;;;;;;10.57;2.10;;;;;;;2.52;89.07;102057.53;5052466;28;20099;-57
2021/01/05 00:55:13;;;;;;;9.23;2.20;;;;;;;2.53;88.96;102059.22;5051679;28;20051;-57
2021/01/05 00:57:44;;;;;;;8.93;2.58;;;;;;;2.51;89.23;102047.56;5053869;28;20435;-58
2021/01/05 01:00:16;;;;;;;9.90;2.33;;;;;;;2.52;89.48;102064.94;5052409;28;20392;-58
2021/01/05 01:02:44;;;;;;;8.93;2.60;;;;;;;2.51;89.33;102063.25;5067364;28;20103;-58
2021/01/05 01:05:11;;;;;;;8.07;2.58;;;;;;;2.54;89.54;102060.06;5054082;28;20484;-58
2021/01/05 01:07:38;;;;;;;9.27;2.35;;;;;;;2.51;89.50;102060.50;5052165;28;20135;-54
2021/01/05 01:10:06;;;;;;;7.80;2.45;;;;;;;2.52;89.85;102060.28;5053668;28;20500;-58
2021/01/05 01:12:33;;;;;;;9.68;3.00;;;;;;;2.53;89.83;102061.13;5052211;28;20049;-55
2021/01/05 01:15:00;;;;;;;7.75;2.15;;;;;;;2.54;89.83;102062.81;5053522;28;20045;-55
2021/01/05 01:17:30;;;;;;;7.07;2.00;;;;;;;2.56;89.61;102061.53;5051568;28;20140;-57
2021/01/05 01:19:58;;;;;;;7.28;2.40;;;;;;;2.56;89.64;102057.94;5052332;28;20052;-55
2021/01/05 01:22:26;;;;;;;8.75;2.10;;;;;;;2.57;89.56;102054.13;5051817;28;20051;-58
2021/01/05 01:25:05;;;;;;;6.50;1.88;;;;;;;2.52;89.80;102054.75;5052442;28;20053;-58
2021/01/05 01:27:37;;;;;;;6.00;1.88;;;;;;;2.55;89.74;102059.00;5052979;28;20041;-58
2021/01/05 01:30:07;;;;;;;6.40;1.85;;;;;;;2.52;89.68;102064.94;5051509;28;20075;-57
2021/01/05 01:32:45;;;;;;;7.22;1.90;;;;;;;2.53;89.79;102061.13;5068930;28;20049;-57
2021/01/05 01:35:13;;;;;;;6.57;2.25;;;;;;;2.50;89.93;102064.31;5052224;28;20049;-57
2021/01/05 01:37:42;;;;;;;8.50;1.80;;;;;;;2.53;90.05;102063.88;5052703;28;20068;-59
2021/01/05 01:40:13;;;;;;;8.18;2.10;;;;;;;2.53;89.87;102067.47;5052067;28;20136;-57
2021/01/05 01:42:40;;;;;;;5.00;2.03;;;;;;;2.54;89.94;102071.06;5052391;28;20111;-58
2021/01/05 01:45:08;;;;;;;4.25;1.77;;;;;;;2.54;89.71;102060.91;5051353;28;20045;-58
2021/01/05 01:47:38;;;;;;;7.22;1.90;;;;;;;2.52;89.70;102060.28;5051762;28;20045;-59
2021/01/05 01:50:15;;;;;;;6.13;2.20;;;;;;;2.50;89.93;102069.81;5051973;28;20060;-59
2021/01/05 01:53:14;;;;;;;5.53;1.58;;;;;;;2.52;90.01;102067.69;5050801;28;20419;-59
2021/01/05 01:56:01;;;;;;;6.47;1.92;;;;;;;2.46;90.25;102063.88;5051864;28;20049;-58
2021/01/05 01:58:52;;;;;;;5.05;1.58;;;;;;;2.47;90.13;102070.25;5067862;28;20049;-58
2021/01/05 02:01:49;;;;;;;8.35;2.08;;;;;;;2.47;90.19;102061.97;5051839;28;20487;-57
2021/01/05 02:04:26;;;;;;;7.25;2.20;;;;;;;2.47;90.32;102061.97;5035947;28;20089;-59
2021/01/05 02:07:26;;;;;;;8.25;1.70;;;;;;;2.48;90.19;102063.66;5051402;28;20052;-59
2021/01/05 02:10:16;;;;;;;4.55;1.60;;;;;;;2.48;90.50;102056.25;5040591;28;20056;-58
2021/01/05 02:13:00;;;;;;;7.97;1.80;;;;;;;2.48;90.19;102059.00;5043219;28;20140;-58
2021/01/05 02:15:34;;;;;;;4.68;1.60;;;;;;;2.49;90.27;102048.84;5051221;28;20411;-59
2021/01/05 02:18:27;;;;;;;8.00;2.30;;;;;;;2.48;90.33;102044.38;5052375;28;20131;-59
2021/01/05 02:21:00;;;;;;;5.85;1.90;;;;;;;2.45;90.40;102051.16;5051068;28;20049;-60
2021/01/05 02:24:03;;;;;;;6.20;2.03;;;;;;;2.44;90.28;102043.97;5052526;28;20090;-60
2021/01/05 02:26:39;;;;;;;7.78;2.08;;;;;;;2.43;90.42;102042.28;5050722;28;20057;-60
2021/01/05 02:29:10;;;;;;;4.35;1.98;;;;;;;2.46;90.65;102033.59;5050940;28;20048;-58
2021/01/05 02:31:53;;;;;;;5.80;1.80;;;;;;;2.48;90.27;102047.16;5051166;28;20053;-57
2021/01/05 02:34:33;;;;;;;;;;;;;;;2.40;90.54;102040.78;5050927;28;20411;-60
2021/01/05 02:37:24;;;;;;;8.10;1.70;;;;;;;2.40;90.65;102038.03;5050668;28;20325;-61
2021/01/05 02:40:28;;;;;;;6.05;1.88;;;;;;;2.41;90.73;102038.88;5051669;28;20155;-59
2021/01/05 02:43:51;;;;;;;11.40;3.00;;;;;;;2.40;90.82;102028.94;5028720;28;20056;-59
2021/01/05 02:46:52;;;;;;;8.50;1.80;;;;;;;2.37;91.21;102033.00;5051899;28;20122;-59
2021/01/05 02:49:45;;;;;;;5.10;1.83;;;;;;;2.39;90.95;102041.88;5052141;28;20059;-59
2021/01/05 02:53:32;;;;;;;4.80;1.80;;;;;;;2.39;90.89;102043.78;5052196;28;20063;-60
2021/01/05 02:56:51;;;;;;;7.28;1.92;;;;;;;2.35;90.94;102028.75;5051476;28;20091;-59
2021/01/05 03:00:18;;;;;;;5.95;2.13;;;;;;;2.30;91.23;102037.66;5047214;28;20060;-61
2021/01/05 03:03:51;;;;;;;5.07;1.90;;;;;;;2.34;90.87;102036.19;5002896;28;20055;-60
2021/01/05 03:06:43;;;;;;;7.43;1.90;;;;;;;2.34;91.29;102033.41;5051320;28;20415;-60
2021/01/05 03:10:25;;;;;;;5.93;1.95;;;;;;;2.39;90.96;102030.88;5027944;28;20156;-61
2021/01/05 03:13:48;;;;;;;3.60;1.80;;;;;;;2.37;91.07;102027.47;5051731;28;20055;-60
2021/01/05 03:16:40;;;;;;;5.57;2.03;;;;;;;2.37;91.23;102029.38;5009034;28;20097;-61
2021/01/05 03:19:35;;;;;;;5.82;2.10;;;;;;;2.39;91.28;102036.38;5051765;28;20072;-60
2021/01/05 03:22:35;;;;;;;6.55;2.38;;;;;;;2.38;91.49;102033.84;4977028;28;20124;-60
2021/01/05 03:25:22;;;;;;;5.60;2.20;;;;;;;2.37;91.32;102044.00;5034544;28;20052;-61
2021/01/05 03:28:11;;;;;;;5.43;1.83;;;;;;;2.37;91.55;102026.63;5051268;28;20098;-61
2021/01/05 03:30:59;;;;;;;6.13;2.35;;;;;;;2.38;91.12;102028.34;5050711;28;20091;-61
2021/01/05 03:33:50;;;;;;;5.13;1.88;;;;;;;2.41;91.17;102033.38;5051350;28;20056;-61
2021/01/05 03:36:35;;;;;;;3.85;1.85;;;;;;;2.42;90.97;102030.41;5050701;28;20051;-62
2021/01/05 03:39:22;;;;;;;6.07;1.80;;;;;;;2.47;91.18;102031.69;5029941;28;20053;-62
2021/01/05 03:42:08;;;;;;;7.75;2.45;;;;;;;2.47;90.84;102031.69;5050832;28;20052;-61
2021/01/05 03:44:53;;;;;;;8.20;2.80;;;;;;;2.48;91.14;102027.84;5050335;28;20122;-61
2021/01/05 03:47:38;;;;;;;7.70;2.28;;;;;;;2.48;91.00;102023.19;5047246;28;20566;-62
2021/01/05 03:50:25;;;;;;;6.70;2.22;;;;;;;2.48;90.96;102019.59;5050716;28;20055;-62
2021/01/05 03:53:10;;;;;;;7.68;2.42;;;;;;;2.49;91.14;102024.03;5050445;28;20056;-61
2021/01/05 03:55:56;;;;;;;8.27;2.60;;;;;;;2.51;90.98;102014.50;5051362;28;20403;-61
2021/01/05 03:58:42;;;;;;;6.97;2.53;;;;;;;2.51;91.01;102009.00;5047214;28;20661;-61
2021/01/05 04:01:27;;;;;;;7.05;2.03;;;;;;;2.53;91.15;102014.28;5050365;28;20060;-61
2021/01/05 04:03:54;;;;;;;9.18;2.72;;;;;;;2.54;90.88;102011.31;5051622;28;20048;-61
2021/01/05 04:06:26;;;;;;;8.98;2.78;;;;;;;2.55;91.22;102020.44;5051066;28;20049;-61
2021/01/05 04:08:53;;;;;;;7.15;2.58;;;;;;;2.55;91.12;102024.03;5050743;28;20125;-61
2021/01/05 04:11:21;;;;;;;8.50;3.35;;;;;;;2.57;91.47;102021.06;5051288;28;20487;-61
2021/01/05 04:13:48;;;;;;;8.15;2.38;;;;;;;2.61;91.00;102025.03;5050704;28;20055;-61
2021/01/05 04:16:14;;;;;;;7.57;2.42;;;;;;;2.63;90.90;102014.66;5050535;28;20388;-61
2021/01/05 04:18:41;;;;;;;6.45;2.60;;;;;;;2.66;90.74;102019.72;5050697;28;20045;-61
2021/01/05 04:21:08;;;;;;;6.90;2.60;;;;;;;2.61;90.80;102019.53;5051096;28;20128;-61
2021/01/05 04:23:35;;;;;;;6.38;2.10;;;;;;;2.61;90.69;102023.13;5051128;28;20051;-61
2021/01/05 04:26:02;;;;;;;7.70;2.20;;;;;;;2.60;90.48;102026.13;5050990;28;20072;-60
2021/01/05 04:28:29;;;;;;;5.68;2.88;;;;;;;2.57;89.97;102021.06;5050659;28;20067;-60
2021/01/05 04:30:56;;;;;;;6.80;2.70;;;;;;;2.55;90.29;102015.75;5051499;28;20088;-62
2021/01/05 04:33:24;;;;;;;4.53;2.22;;;;;;;2.54;90.23;102011.31;5050653;28;20049;-61
2021/01/05 04:35:51;;;;;;;8.32;2.90;;;;;;;2.55;90.35;102014.91;5051150;28;20445;-62
2021/01/05 04:38:17;;;;;;;9.02;2.67;;;;;;;2.58;90.32;102011.72;5051147;28;20148;-61
2021/01/05 04:40:47;;;;;;;8.10;3.00;;;;;;;2.58;90.15;102011.72;5050578;28;20048;-61
2021/01/05 04:43:32;;;;;;;7.10;2.72;;;;;;;2.61;90.22;102022.28;5051161;28;20040;-61
2021/01/05 04:46:17;;;;;;;8.02;2.72;;;;;;;2.61;90.32;102019.53;5051140;28;20148;-61
2021/01/05 04:48:53;;;;;;;6.45;2.50;;;;;;;2.62;90.29;102012.97;5050664;28;20059;-61
2021/01/05 04:51:29;;;;;;;9.23;2.60;;;;;;;2.62;90.39;102012.97;5051023;28;20059;-62
2021/01/05 04:54:02;;;;;;;9.60;2.72;;;;;;;2.63;90.33;102012.75;5050227;28;20116;-61
2021/01/05 04:56:44;;;;;;;9.98;3.03;;;;;;;2.63;90.32;102011.91;5050886;28;20041;-61
2021/01/05 04:59:14;;;;;;;7.78;2.72;;;;;;;2.65;90.36;102023.56;5050656;28;20075;-59
2021/01/05 05:01:42;;;;;;;7.13;2.60;;;;;;;2.66;90.32;102015.06;5049304;28;20455;-58
2021/01/05 05:04:16;;;;;;;9.02;2.90;;;;;;;2.69;90.43;102016.53;5050684;28;20069;-60
2021/01/05 05:06:46;;;;;;;9.45;2.97;;;;;;;2.67;90.17;102015.91;5050992;28;20049;-58
2021/01/05 05:09:27;;;;;;;7.85;3.00;;;;;;;2.68;90.16;102012.94;5049854;28;20049;-59
2021/01/05 05:12:21;;;;;;;9.50;2.65;;;;;;;2.66;90.23;102026.09;5050933;28;20049;-60
2021/01/05 05:14:57;;;;;;;7.18;2.65;;;;;;;2.70;90.15;102015.47;5049691;28;20057;-60
2021/01/05 05:17:43;;;;;;;5.32;2.60;;;;;;;2.70;90.16;102021.00;5052497;28;20512;-60
2021/01/05 05:20:23;;;;;;;6.55;2.47;;;;;;;2.70;90.02;102021.84;5054533;28;20144;-58
2021/01/05 05:23:07;;;;;;;6.40;2.47;;;;;;;2.70;90.08;102032.88;5053973;28;20065;-61
2021/01/05 05:25:41;;;;;;;5.78;2.00;;;;;;;2.70;89.77;102029.25;5054313;28;20075;-61
2021/01/05 05:28:15;;;;;;;6.18;2.30;;;;;;;2.69;89.94;102022.91;5054433;28;20284;-61
2021/01/05 05:30:45;;;;;;;6.72;2.20;;;;;;;2.70;89.94;102021.84;5053652;28;20049;-62
2021/01/05 05:33:18;;;;;;;5.68;2.33;;;;;;;2.68;90.20;102028.63;5054567;28;20043;-62
2021/01/05 05:36:08;;;;;;;7.00;2.38;;;;;;;2.70;90.05;102026.50;5053297;28;20088;-63
2021/01/05 05:38:55;;;;;;;8.25;2.30;;;;;;;2.70;90.11;102030.09;5048223;28;20068;-63
2021/01/05 05:41:32;;;;;;;6.90;2.17;;;;;;;2.69;90.37;102031.16;5053957;28;20128;-64
2021/01/05 05:44:17;;;;;;;8.10;2.53;;;;;;;2.71;90.00;102030.94;5053807;28;20470;-65
2021/01/05 05:46:48;;;;;;;5.93;2.10;;;;;;;2.70;90.22;102023.75;5053597;28;20123;-67
2021/01/05 05:49:28;;;;;;;7.68;2.17;;;;;;;2.71;90.00;102031.81;5054373;28;20467;-66
2021/01/05 05:51:59;;;;;;;7.03;2.50;;;;;;;2.70;90.05;102034.78;5053138;28;20053;-66
2021/01/05 05:54:26;;;;;;;11.90;2.90;;;;;;;2.67;90.27;102038.81;5053850;28;20492;-65
2021/01/05 05:57:22;;;;;;;5.22;2.30;;;;;;;2.70;90.01;102032.88;5053002;28;20414;-63
2021/01/05 05:59:54;;;;;;;8.43;2.47;;;;;;;2.67;90.04;102030.53;5034065;28;20081;-62
2021/01/05 06:02:23;;;;;;;7.22;2.60;;;;;;;2.65;90.36;102029.91;5051698;28;20115;-60
2021/01/05 06:04:52;;;;;;;6.93;2.45;;;;;;;2.66;90.36;102037.13;5053664;28;20560;-60
2021/01/05 06:07:19;;;;;;;7.53;2.60;;;;;;;2.67;90.22;102036.06;5053459;28;20135;-60
2021/01/05 06:09:46;;;;;;;7.30;2.40;;;;;;;2.68;90.37;102042.41;5054042;28;20136;-57
2021/01/05 06:12:12;;;;;;;9.50;2.75;;;;;;;2.69;90.35;102035.84;5052888;28;20399;-59
2021/01/05 06:14:39;;;;;;;6.30;2.33;;;;;;;2.70;90.35;102037.53;5053353;28;20053;-59
2021/01/05 06:17:07;;;;;;;8.10;2.50;;;;;;;2.69;90.13;102044.94;5052960;28;20059;-60
2021/01/05 06:19:33;;;;;;;12.32;3.25;;;;;;;2.72;90.37;102038.16;5053118;28;20049;-60
2021/01/05 06:22:00;;;;;;;9.40;2.45;;;;;;;2.73;90.42;102045.38;5052870;28;20526;-60
2021/01/05 06:24:27;;;;;;;8.65;2.35;;;;;;;2.73;90.49;102048.97;5053506;28;20123;-60
2021/01/05 06:26:53;;;;;;;7.60;2.80;;;;;;;2.76;90.43;102043.03;5052571;28;20488;-61
2021/01/05 06:29:20;;;;;;;7.55;2.30;;;;;;;2.75;90.42;102049.59;5053149;28;20065;-60
2021/01/05 06:31:47;;;;;;;9.07;2.47;;;;;;;2.74;90.55;102047.06;5053187;28;20072;-59
2021/01/05 06:34:15;;;;;;;5.80;2.45;;;;;;;2.76;90.15;102042.19;5052728;28;20077;-60
2021/01/05 06:36:42;;;;;;;5.57;2.00;;;;;;;2.75;90.14;102046.84;5050728;28;20684;-60
2021/01/05 06:39:09;;;;;;;6.03;2.53;;;;;;;2.79;90.23;102043.66;5052695;28;20047;-61
2021/01/05 06:41:35;;;;;;;5.28;2.20;;;;;;;2.80;90.10;102048.09;5052883;28;20496;-60
2021/01/05 06:44:03;;;;;;;8.88;2.63;;;;;;;2.80;90.13;102048.91;5052924;28;20135;-58
2021/01/05 06:46:31;;;;;;;7.63;2.72;;;;;;;2.79;89.87;102051.91;5051412;28;20048;-58
2021/01/05 06:48:58;;;;;;;8.95;2.75;;;;;;;2.79;90.03;102058.28;5052620;28;20055;-60
2021/01/05 06:51:26;;;;;;;6.85;2.63;;;;;;;2.78;90.04;102047.47;5052665;28;20061;-59
2021/01/05 06:53:52;;;;;;;7.93;2.47;;;;;;;2.79;90.04;102051.91;5052195;28;20044;-59
2021/01/05 06:56:19;;;;;;;5.78;2.75;;;;;;;2.79;90.23;102044.50;5053024;28;20076;-59
2021/01/05 06:58:49;;;;;;;10.07;3.00;;;;;;;2.82;90.20;102056.97;5051549;28;20048;-59
2021/01/05 07:01:16;;;;;;;6.97;2.60;;;;;;;2.82;90.03;102059.72;5052272;28;20052;-57
2021/01/05 07:03:43;;;;;;;7.43;3.00;;;;;;;2.81;89.97;102064.38;5052147;28;20068;-59
2021/01/05 07:06:10;;;;;;;9.68;2.83;;;;;;;2.81;89.99;102056.13;5051997;28;20377;-59
2021/01/05 07:08:37;;;;;;;7.25;2.90;;;;;;;2.84;90.00;102061.19;5051250;28;20041;-59
2021/01/05 07:11:04;;;;;;;7.28;2.65;;;;;;;2.84;89.84;102063.13;5052659;28;20547;-58
2021/01/05 07:13:31;;;;;;;6.72;3.03;;;;;;;2.84;89.65;102066.72;5052000;28;20511;-60
2021/01/05 07:15:58;;;;;;;8.30;3.10;;;;;;;2.85;89.81;102062.91;5051930;28;20102;-59
2021/01/05 07:18:25;;;;;;;7.30;3.33;;;;;;;2.85;89.81;102068.41;5052020;28;20588;-60
2021/01/05 07:20:55;;;;;;;10.77;4.03;;;;;;;2.83;89.62;102065.03;5052801;28;20049;-60
2021/01/05 07:23:22;;;;;;;6.90;2.90;;;;;;;2.83;89.43;102070.53;5051172;28;20041;-60
2021/01/05 07:25:50;;;;;;;7.35;2.58;;;;;;;2.83;89.41;102062.25;5052398;28;20071;-60
2021/01/05 07:28:16;;;;;;;8.55;3.05;;;;;;;2.82;89.63;102077.09;5050794;28;20084;-62
2021/01/05 07:30:43;;;;;;;9.10;2.85;;;;;;;2.83;89.53;102081.56;5048146;28;20128;-61
2021/01/05 07:33:10;;;;;;;8.05;3.10;;;;;;;2.84;89.31;102080.50;5052011;28;20049;-61
2021/01/05 07:35:37;;;;;;;8.27;3.13;;;;;;;2.85;89.39;102082.19;5051156;28;20474;-62
2021/01/05 07:38:03;;;;;;;8.05;2.95;;;;;;;2.85;89.62;102084.09;5051516;28;20131;-61
2021/01/05 07:40:31;;;;;;;6.90;3.05;;;;;;;2.83;89.30;102089.84;5051119;28;20106;-62
2021/01/05 07:42:58;;;;;;;7.35;2.88;;;;;;;2.81;89.28;102088.34;5051293;28;20506;-60
2021/01/05 07:45:25;;;;;;;7.32;3.05;;;;;;;2.80;89.05;102086.69;5051055;28;20156;-60
2021/01/05 07:47:52;;;;;;;7.05;3.00;;;;;;;2.82;89.07;102092.81;5050755;28;20470;-60
2021/01/05 07:50:21;;;;;;;7.85;3.17;;;;;;;2.79;88.91;102096.03;5051032;28;20127;-61
2021/01/05 07:52:48;;;;;;;6.38;3.00;;;;;;;2.78;88.86;102095.19;5051334;28;20084;-61
2021/01/05 07:55:17;;;;;;;6.68;3.08;;;;;;;2.78;88.98;102095.19;5051496;28;20053;-61
2021/01/05 07:57:44;;;;;;;7.07;3.30;;;;;;;2.80;89.14;102094.97;5050941;28;20404;-61
2021/01/05 08:00:16;;;;;;;5.15;2.85;;;;;;;2.79;88.93;102099.63;5051282;28;20051;-60
2021/01/05 08:02:43;;;;;;;4.72;2.95;;;;;;;2.79;88.62;102090.50;5051895;28;20048;-60
2021/01/05 08:05:12;;;;;;;6.00;3.53;;;;;;;2.76;88.91;102106.41;5050705;28;20051;-59
2021/01/05 08:07:39;;;;;;;7.75;3.55;;;;;;;2.77;88.96;102101.75;5051420;28;20055;-59
2021/01/05 08:10:07;;;;;;;6.30;3.20;;;;;;;2.78;88.91;102103.44;5050997;28;20065;-59
2021/01/05 08:12:34;;;;;;;9.43;3.70;;;;;;;2.74;88.91;102104.94;5050602;28;20191;-59
2021/01/05 08:15:00;;;;;;;6.93;3.22;;;;;;;2.78;88.83;102110.88;5051191;28;20080;-59
2021/01/05 08:17:28;;;;;;;6.68;3.10;;;;;;;2.79;89.03;102109.81;5051063;28;20076;-59
2021/01/05 08:19:55;;;;;;;8.27;3.30;;;;;;;2.79;89.14;102104.28;5049861;28;20458;-61
2021/01/05 08:22:22;;;;;;;8.57;3.53;;;;;;;2.79;89.03;102113.41;5049811;28;20175;-60
2021/01/05 08:24:48;;;;;;;7.05;3.10;;;;;;;2.80;89.15;102115.06;5050684;28;20135;-60
2021/01/05 08:27:15;;;;;;;10.50;3.65;;;;;;;2.75;89.32;102113.00;5050876;28;20045;-60
2021/01/05 08:29:43;;;;;;;7.85;3.17;;;;;;;2.75;89.40;102112.13;5051271;28;20418;-60
2021/01/05 08:32:09;;;;;;;11.95;3.45;;;;;;;2.78;89.30;102113.63;5050082;28;20048;-60
2021/01/05 08:34:37;;;;;;;7.82;3.40;;;;;;;2.79;89.34;102123.59;5051107;28;20540;-60
2021/01/05 08:37:04;;;;;;;10.00;3.90;;;;;;;2.75;89.55;102120.41;5050762;28;20106;-60
2021/01/05 08:39:30;;;;;;;6.88;2.78;;;;;;;2.79;89.38;102126.34;5050467;28;20041;-60
2021/01/05 08:41:57;;;;;;;8.45;3.33;;;;;;;2.78;89.28;102128.25;5050894;28;20041;-60
2021/01/05 08:44:25;;;;;;;7.82;3.10;;;;;;;2.81;89.40;102126.94;5050564;28;20045;-60
2021/01/05 08:46:59;;;;;;;7.78;3.20;;;;;;;2.79;89.43;102124.44;5048313;28;20127;-61
2021/01/05 08:49:26;;;;;;;10.70;3.30;;;;;;;2.78;89.44;102122.72;5048534;28;20072;-61
2021/01/05 08:51:54;;;;;;;10.73;3.25;;;;;;;2.81;89.23;102126.94;5050053;28;20053;-60
2021/01/05 08:54:21;;;;;;;7.03;3.35;;;;;;;2.82;89.54;102120.38;5053762;28;20190;-60
2021/01/05 08:56:52;;;;;;;7.72;3.30;;;;;;;2.83;89.56;102116.53;5053848;28;20131;-59
2021/01/05 08:59:20;;;;;;;10.63;3.22;;;;;;;2.83;89.39;102119.31;5054525;28;20098;-60
2021/01/05 09:01:47;;;;;;;9.20;3.25;;;;;;;2.82;89.78;102129.47;5053811;28;20041;-60
2021/01/05 09:04:14;;;;;;;6.70;3.35;;;;;;;2.84;89.65;102123.75;5054683;28;20069;-60
2021/01/05 09:06:41;;;;;;;6.07;3.33;;;;;;;2.87;89.52;102118.66;5054195;28;20037;-60
2021/01/05 09:09:08;;;;;;;8.73;3.45;;;;;;;2.89;89.80;102124.81;5054350;28;20115;-61
2021/01/05 09:11:35;;;;;;;11.73;3.80;;;;;;;2.90;89.59;102118.22;5054610;28;20078;-61
2021/01/05 09:14:02;;;;;;;5.88;3.15;;;;;;;2.93;89.63;102123.31;5052727;28;20049;-61
2021/01/05 09:16:32;;;;;;;9.65;3.47;;;;;;;2.96;89.54;102122.03;5054811;28;20141;-60
2021/01/05 09:19:00;;;;;;;7.35;2.83;;;;;;;2.96;89.58;102116.53;5054005;28;20460;-60
2021/01/05 09:21:29;;;;;;;10.13;3.10;;;;;;;2.98;89.53;102119.91;5053966;28;20049;-59
2021/01/05 09:23:59;;;;;;;9.90;3.20;;;;;;;2.97;89.22;102124.56;5054132;28;20098;-60
2021/01/05 09:26:28;;;;;;;9.65;2.83;;;;;;;2.98;89.59;102129.03;5054449;28;20393;-60
2021/01/05 09:28:56;;;;;;;7.70;3.00;;;;;;;3.01;89.53;102122.19;5053601;28;20048;-60
2021/01/05 09:31:24;;;;;;;7.93;2.63;;;;;;;3.01;89.53;102120.28;5054339;28;20395;-60
2021/01/05 09:33:51;;;;;;;9.18;2.83;;;;;;;3.07;89.48;102122.19;5053630;28;20051;-60
2021/01/05 09:36:19;;;;;;;7.43;2.35;;;;;;;3.09;89.14;102114.53;5053925;28;20080;-60
2021/01/05 09:38:46;;;;;;;8.18;3.00;;;;;;;3.09;89.22;102121.97;5053796;28;20547;-60
2021/01/05 09:41:22;;;;;;;9.85;2.70;;;;;;;3.11;89.28;102134.47;5054187;28;20124;-60
2021/01/05 09:43:50;;;;;;;7.47;2.80;;;;;;;3.09;89.14;102125.56;5053243;28;20040;-61
2021/01/05 09:46:18;;;;;;;9.88;3.03;;;;;;;3.10;89.20;102121.75;5053923;28;20049;-60
2021/01/05 09:48:45;;;;;;;8.75;3.05;;;;;;;3.11;88.88;102131.72;5053399;28;20531;-60
2021/01/05 09:51:19;;;;;;;8.40;3.25;;;;;;;3.14;88.88;102126.84;5053208;28;20052;-60
2021/01/05 09:53:46;;;;;;;9.50;3.35;;;;;;;3.13;88.52;102116.88;5053417;28;20055;-61
2021/01/05 09:56:13;;;;;;;8.43;2.90;;;;;;;3.16;88.41;102122.78;5053324;28;20132;-59
2021/01/05 09:58:40;;;;;;;6.78;2.53;;;;;;;3.17;88.32;102118.13;5052077;28;20461;-59
2021/01/05 10:01:08;;;;;;;9.95;3.33;;;;;;;3.18;88.29;102119.81;5053452;28;20507;-59
2021/01/05 10:03:34;;;;;;;7.10;2.58;;;;;;;3.17;88.23;102121.72;5052279;28;20041;-60
2021/01/05 10:06:01;;;;;;;7.57;2.63;;;;;;;3.16;88.03;102119.19;5053461;28;20047;-60
2021/01/05 10:08:28;;;;;;;7.18;2.55;;;;;;;3.16;88.05;102113.69;5053304;28;20048;-60
2021/01/05 10:10:55;;;;;;;3.78;2.13;;;;;;;3.19;88.16;102118.75;5052966;28;20041;-60
2021/01/05 10:13:21;;;;;;;7.00;2.88;;;;;;;3.18;88.15;102117.91;5053493;28;20049;-60
2021/01/05 10:15:48;;;;;;;6.97;2.33;;;;;;;3.18;87.77;102123.44;5053174;28;20088;-60
2021/01/05 10:18:16;;;;;;;8.52;2.70;;;;;;;3.18;88.01;102119.81;5053015;28;20053;-60
2021/01/05 10:20:43;;;;;;;6.28;2.50;;;;;;;3.15;87.79;102120.25;5053053;28;20460;-59
2021/01/05 10:23:09;;;;;;;6.00;2.45;;;;;;;3.15;87.79;102118.34;5053336;28;20048;-60
2021/01/05 10:25:36;;;;;;;5.22;2.60;;;;;;;3.15;87.81;102125.78;5052102;28;20120;-61
2021/01/05 10:28:03;;;;;;;6.78;2.63;;;;;;;3.15;87.88;102120.25;5053171;28;20468;-59
2021/01/05 10:30:30;;;;;;;5.15;2.13;;;;;;;3.17;87.83;102116.22;5052800;28;20040;-59
2021/01/05 10:32:56;;;;;;;6.72;2.25;;;;;;;3.19;87.82;102125.13;5052692;28;20080;-59
2021/01/05 10:35:24;;;;;;;4.78;2.08;;;;;;;3.21;87.98;102124.88;5052597;28;20056;-57
2021/01/05 10:37:51;;;;;;;6.10;1.80;;;;;;;3.21;87.54;102127.63;5052986;28;20045;-57
2021/01/05 10:40:20;;;;;;;5.70;2.10;;;;;;;3.19;87.01;102124.28;5052106;28;20047;-57
2021/01/05 10:42:49;;;;;;;4.68;1.80;;;;;;;3.24;87.37;102127.19;5052840;28;20045;-57
2021/01/05 10:45:19;;;;;;;3.80;1.67;;;;;;;3.22;87.33;102126.56;5052366;28;20049;-58
2021/01/05 10:47:47;;;;;;;5.20;1.88;;;;;;;3.25;86.91;102134.41;5052918;28;20099;-54
2021/01/05 10:50:19;;;;;;;3.50;2.15;;;;;;;3.28;87.11;102120.19;5052631;28;20047;-57
2021/01/05 10:52:47;;;;;;;5.15;1.88;;;;;;;3.23;87.06;102122.75;5052137;28;20056;-59
2021/01/05 10:55:15;;;;;;;3.90;1.95;;;;;;;3.22;86.85;102116.38;5052778;28;20049;-57
2021/01/05 10:57:42;;;;;;;5.53;2.05;;;;;;;3.22;87.09;102123.81;5052741;28;20041;-55
2021/01/05 11:00:10;;;;;;;5.40;1.88;;;;;;;3.19;87.26;102122.38;5051983;28;20052;-55
2021/01/05 11:02:37;;;;;;;4.60;2.10;;;;;;;3.11;86.74;102131.72;5051391;28;20128;-56
2021/01/05 11:05:05;;;;;;;5.20;2.10;;;;;;;3.13;87.24;102119.63;5052517;28;20045;-56
2021/01/05 11:07:32;;;;;;;3.53;1.60;;;;;;;3.15;87.26;102120.25;5051504;28;20047;-56
2021/01/05 11:09:59;;;;;;;3.65;1.67;;;;;;;3.12;87.38;102124.28;5052703;28;20487;-59
2021/01/05 11:12:26;;;;;;;5.70;2.00;;;;;;;3.11;87.47;102122.59;5052110;28;20088;-53
2021/01/05 11:14:53;;;;;;;5.22;1.85;;;;;;;3.07;87.32;102111.16;5050910;28;20043;-55
2021/01/05 11:17:20;;;;;;;4.68;1.73;;;;;;;3.10;87.61;102118.16;5051949;28;20102;-58
2021/01/05 11:19:47;;;;;;;5.07;1.80;;;;;;;3.05;87.85;102102.25;5051874;28;20500;-56
2021/01/05 11:22:16;;;;;;;5.60;1.63;;;;;;;3.07;87.88;102105.63;5051586;28;20499;-57
2021/01/05 11:24:44;;;;;;;3.72;1.42;;;;;;;3.06;87.96;102106.72;5052090;28;20568;-54
2021/01/05 11:27:14;;;;;;;5.03;2.03;;;;;;;3.10;87.99;102098.84;5051970;28;20047;-57
2021/01/05 11:29:42;;;;;;;4.53;1.60;;;;;;;3.13;88.05;102103.06;5051606;28;20045;-55
2021/01/05 11:32:12;;;;;;;4.82;2.00;;;;;;;3.19;87.87;102111.34;5050323;28;20052;-57
2021/01/05 11:34:40;;;;;;;4.60;1.70;;;;;;;3.18;87.98;102101.38;5051178;28;20059;-58
2021/01/05 11:37:09;;;;;;;4.38;1.60;;;;;;;3.20;88.25;102098.38;5051529;28;20069;-55
2021/01/05 11:39:37;;;;;;;6.30;1.35;;;;;;;3.23;88.02;102097.91;5051788;28;20480;-56
2021/01/05 11:42:05;;;;;;;4.70;1.30;;;;;;;3.26;87.85;102091.97;5051431;28;20194;-59
2021/01/05 11:44:33;;;;;;;5.57;1.88;;;;;;;3.25;87.79;102102.16;5051735;28;20380;-57
2021/01/05 11:47:00;;;;;;;6.22;1.58;;;;;;;3.27;87.97;102091.75;5051484;28;20052;-59
2021/01/05 11:49:27;;;;;;;6.15;1.75;;;;;;;3.30;87.90;102077.53;5051275;28;20115;-57
2021/01/05 11:51:55;;;;;;;5.43;1.50;;;;;;;3.33;87.90;102087.28;5051299;28;20052;-57
2021/01/05 11:54:24;;;;;;;3.35;1.30;;;;;;;3.36;87.95;102092.34;5050987;28;20128;-55
2021/01/05 11:56:55;;;;;;;4.72;1.60;;;;;;;3.41;87.83;102084.22;5051261;28;20123;-57
2021/01/05 11:59:22;;;;;;;5.22;1.52;;;;;;;3.47;87.90;102077.84;5051021;28;20504;-57
2021/01/05 12:01:49;;;;;;;3.97;1.48;;;;;;;3.50;87.70;102074.63;5051057;28;20063;-57